createdAt,value
2022-12-27T00:09:04.549Z,82.05
2022-12-27T00:19:25.920Z,82.02
2022-12-27T00:29:47.340Z,81.57
2022-12-27T00:40:09.072Z,81.47
2022-12-27T00:50:30.450Z,81.96
2022-12-27T01:00:51.935Z,81.55
2022-12-27T01:11:13.757Z,82.68
2022-12-27T01:21:35.252Z,82.29
2022-12-27T01:31:56.729Z,82.30
2022-12-27T01:42:37.384Z,82.48
2022-12-27T01:53:07.971Z,81.97
2022-12-27T02:03:32.945Z,81.48
2022-12-27T02:13:54.434Z,82.99
2022-12-27T02:24:15.816Z,82.50
2022-12-27T02:34:40.389Z,82.89
2022-12-27T02:45:21.178Z,83.67
2022-12-27T02:56:23.349Z,83.22
2022-12-27T03:06:47.765Z,83.53
2022-12-27T03:17:13.044Z,83.91
2022-12-27T03:27:36.475Z,84.17
2022-12-27T03:38:05.506Z,84.33
2022-12-27T03:48:31.824Z,84.86
2022-12-27T03:58:53.571Z,85.47
2022-12-27T04:09:33.709Z,84.69
2022-12-27T04:20:14.005Z,85.02
2022-12-27T04:30:54.178Z,85.74
2022-12-27T04:41:54.050Z,85.49
2022-12-27T04:52:38.461Z,85.65
2022-12-27T05:03:00.783Z,85.01
2022-12-27T05:13:40.928Z,86.09
2022-12-27T05:24:21.102Z,85.99
2022-12-27T05:34:42.492Z,86.92
2022-12-27T05:45:04.050Z,86.55
2022-12-27T05:55:25.424Z,85.87
2022-12-27T06:05:47.401Z,85.40
2022-12-27T06:16:11.184Z,85.34
2022-12-27T06:26:33.170Z,85.15
2022-12-27T06:36:54.548Z,86.22
2022-12-27T06:47:15.922Z,86.23
2022-12-27T06:57:37.365Z,87.84
2022-12-27T07:07:58.752Z,87.46
2022-12-27T07:18:20.108Z,87.46
2022-12-27T07:28:41.787Z,87.06
2022-12-27T07:39:03.709Z,86.88
2022-12-27T07:49:25.061Z,87.72
2022-12-27T07:59:46.449Z,87.25
2022-12-27T08:10:08.285Z,87.03
2022-12-27T08:20:29.738Z,87.17
2022-12-27T08:30:51.242Z,86.90
2022-12-27T08:41:12.676Z,86.91
2022-12-27T08:51:40.621Z,87.11
2022-12-27T09:02:02.872Z,86.90
2022-12-27T09:12:24.357Z,86.79
2022-12-27T09:22:45.762Z,87.01
2022-12-27T09:33:07.290Z,86.76
2022-12-27T09:44:00.155Z,86.13
2022-12-27T09:54:38.168Z,85.79
2022-12-27T10:15:52.115Z,85.48
2022-12-27T10:26:15.083Z,85.09
2022-12-27T10:36:37.356Z,85.69
2022-12-27T10:46:59.624Z,84.50
2022-12-27T10:57:36.322Z,84.25
2022-12-27T11:07:58.303Z,84.11
2022-12-27T11:18:21.947Z,83.62
2022-12-27T11:28:50.926Z,83.33
2022-12-27T11:39:53.551Z,83.34
2022-12-27T11:50:27.161Z,82.78
2022-12-27T12:01:05.348Z,82.45
2022-12-27T12:11:51.386Z,81.48
2022-12-27T12:22:46.217Z,82.59
2022-12-27T12:33:16.663Z,81.33
2022-12-27T12:43:38.003Z,80.64
2022-12-27T12:54:02.417Z,81.56
2022-12-27T13:04:32.856Z,81.00
2022-12-27T13:15:13.346Z,80.63
2022-12-27T13:25:42.085Z,80.70
2022-12-27T13:36:03.596Z,81.25
2022-12-27T13:46:43.756Z,80.87
2022-12-27T13:57:25.414Z,81.36
2022-12-27T14:07:55.196Z,82.53
2022-12-27T14:18:25.656Z,82.14
2022-12-27T14:29:05.935Z,82.35
2022-12-27T14:39:46.518Z,82.76
2022-12-27T14:50:08.035Z,83.17
2022-12-27T15:00:44.632Z,83.32
2022-12-27T15:11:06.040Z,83.96
2022-12-27T15:21:27.367Z,83.86
2022-12-27T15:31:56.760Z,84.11
2022-12-27T15:42:48.295Z,84.23
2022-12-27T15:53:22.366Z,84.90
2022-12-27T16:03:45.516Z,85.46
2022-12-27T16:14:23.969Z,85.63
2022-12-27T16:24:45.486Z,85.47
2022-12-27T16:35:13.477Z,86.31
2022-12-27T16:45:37.888Z,86.67
2022-12-27T16:56:14.156Z,86.88
2022-12-27T17:06:35.527Z,87.07
2022-12-27T17:16:58.525Z,86.95
2022-12-27T17:27:28.270Z,87.64
2022-12-27T17:37:49.617Z,87.92
2022-12-27T17:48:14.061Z,87.94
2022-12-27T17:58:35.444Z,88.49
2022-12-27T18:08:57.159Z,88.24
2022-12-27T18:19:19.943Z,88.02
2022-12-27T18:29:41.499Z,88.41
2022-12-27T18:40:04.708Z,88.37
2022-12-27T18:50:30.395Z,88.05
2022-12-27T19:00:53.161Z,88.44
2022-12-27T19:11:22.464Z,88.53
2022-12-27T19:21:45.104Z,88.51
2022-12-27T19:32:09.906Z,90.07
2022-12-27T19:42:33.107Z,89.45
2022-12-27T19:52:54.577Z,88.63
2022-12-27T20:03:15.993Z,88.77
2022-12-27T20:13:37.395Z,87.28
2022-12-27T20:23:58.745Z,87.48
2022-12-27T20:34:20.098Z,87.13
2022-12-27T20:44:41.446Z,87.19
2022-12-27T20:55:03.011Z,87.24
2022-12-27T21:05:24.558Z,86.61
2022-12-27T21:15:46.276Z,85.18
2022-12-27T21:26:16.483Z,85.69
2022-12-27T21:36:38.428Z,84.92
2022-12-27T21:46:59.961Z,84.61
2022-12-27T21:57:21.454Z,84.58
2022-12-27T22:07:43.933Z,83.59
2022-12-27T22:18:05.511Z,83.54
2022-12-27T22:28:41.824Z,82.96
2022-12-27T22:39:04.619Z,83.02
2022-12-27T22:49:27.252Z,82.64
2022-12-27T22:59:49.142Z,82.36
2022-12-27T23:10:10.712Z,81.49
2022-12-27T23:20:35.169Z,80.99
2022-12-27T23:30:56.781Z,80.17
2022-12-27T23:41:21.041Z,80.55
2022-12-27T23:51:42.784Z,80.45
